Audrey — PD9331 — position and weather

sailwx.info

Track history (hours):
 
Tides and Currents Weather Stations Pressure Air Temp Water Temp Dewpoint Dewpoint Depression Visibility Wind Speed Wind Dir Waves Ship Positions

Audrey

Last reported at 2016-Dec-10 12:19 UTC. Time now 2016-Dec-11 09:59 UTC.
Position N 49°26' E 008°30'.

Length 85 m; draft 2 m.

Type: Wing in ground effect craft. MMSI: 244660106.

Date/timePositionNaut miles runAvg speedWind from/ knotsBaromVisibWave heightAir tempDewpointWater temp
2016-Dec-10 12:19N 49°26' E 008°30'6 8.3
2016-Dec-10 11:33N 49°20' E 008°27'6 6.4
2016-Dec-10 10:33N 49°14' E 008°23'9 8.7
2016-Dec-10 09:33N 49°05' E 008°21'9 8.7
2016-Dec-10 08:33N 48°58' E 008°14'84 3.8
2016-Dec-09 10:32N 47°39' E 007°32'3 3.2
2016-Dec-09 09:33N 47°37' E 007°35'1 0.8
2016-Dec-09 08:31N 47°36' E 007°35'0 0.0
2016-Dec-09 07:33N 47°36' E 007°35'0 0.0
2016-Dec-09 06:33N 47°36' E 007°35'0 0.0
2016-Dec-09 05:33N 47°36' E 007°35'0 0.0
2016-Dec-09 04:33N 47°36' E 007°35'0 0.0
2016-Dec-09 03:33N 47°36' E 007°35'0 0.0
2016-Dec-09 02:33N 47°36' E 007°35'0 0.0
2016-Dec-09 01:33N 47°36' E 007°35'0 0.0
2016-Dec-09 00:33N 47°36' E 007°35'0 0.0
2016-Dec-08 23:33N 47°36' E 007°35'0 0.0
2016-Dec-08 22:33N 47°36' E 007°35'0 0.0
2016-Dec-08 21:33N 47°36' E 007°35'0 0.0
2016-Dec-08 20:33N 47°36' E 007°35'0 0.0
2016-Dec-08 19:33N 47°36' E 007°35'0 0.0
2016-Dec-08 18:33N 47°36' E 007°35'0 0.0
2016-Dec-08 17:32N 47°36' E 007°35'2 0.9
2016-Dec-08 15:28N 47°34' E 007°35'1 0.2
2016-Dec-08 10:31N 47°33' E 007°36'5 4.9
2016-Dec-08 09:33N 47°32' E 007°43'1 1.0
2016-Dec-08 08:33N 47°33' E 007°44'0 0.0
2016-Dec-08 07:33N 47°33' E 007°44'0 0.0
2016-Dec-08 06:34N 47°33' E 007°44'0 0.0
2016-Dec-08 05:33N 47°33' E 007°44'0 0.0
2016-Dec-08 04:33N 47°33' E 007°44'0 0.0
2016-Dec-08 03:33N 47°33' E 007°44'0 0.0
2016-Dec-08 02:32N 47°33' E 007°44'0 0.0
2016-Dec-08 01:33N 47°33' E 007°44'0 0.0
2016-Dec-08 00:33N 47°33' E 007°44'0 0.0
2016-Dec-07 23:33N 47°33' E 007°44'0 0.0
2016-Dec-07 22:33N 47°33' E 007°44'0 0.0
2016-Dec-07 21:33N 47°33' E 007°44'0 0.0
2016-Dec-07 20:33N 47°33' E 007°44'0 0.0
2016-Dec-07 19:32N 47°33' E 007°44'0 0.0
2016-Dec-07 18:33N 47°33' E 007°44'0 0.0
2016-Dec-07 17:33N 47°33' E 007°44'0 0.0
2016-Dec-07 16:34N 47°33' E 007°44'0 0.0
2016-Dec-07 15:34N 47°33' E 007°44'0 0.0
2016-Dec-07 14:33N 47°33' E 007°44'0 0.0
2016-Dec-07 13:34N 47°33' E 007°44'0 0.0
2016-Dec-07 12:33N 47°33' E 007°44'0 0.0
2016-Dec-07 11:33N 47°33' E 007°44'0 0.0
2016-Dec-07 10:34N 47°33' E 007°44'0 0.0
2016-Dec-07 09:33N 47°33' E 007°44'0 0.0
2016-Dec-07 08:33N 47°33' E 007°44'2 2.1
2016-Dec-07 07:33N 47°32' E 007°41'85 2.0
2016-Dec-05 13:03N 48°54' E 008°09'3 4.1
2016-Dec-05 12:20N 48°57' E 008°11'3 3.7
2016-Dec-05 11:33N 48°59' E 008°15'4 3.6
2016-Dec-05 10:33N 49°02' E 008°18'4 4.1
2016-Dec-05 09:34N 49°05' E 008°21'4 4.0
2016-Dec-05 08:33N 49°09' E 008°22'4 3.9
2016-Dec-05 07:34N 49°13' E 008°23'4 4.0
2016-Dec-05 06:33N 49°16' E 008°27'3 2.9
2016-Dec-05 05:33N 49°19' E 008°27'5 4.6
2016-Dec-05 04:29N 49°24' E 008°30'102 2.4
2016-Dec-03 10:14N 50°49' E 007°02'2 3.1
2016-Dec-03 09:29N 50°51' E 007°00'2 2.6
2016-Dec-03 08:31N 50°54' E 007°00'4 4.2
2016-Dec-03 07:29N 50°58' E 006°60'36 2.1
2016-Dec-02 14:30N 51°32' E 006°41'3 3.3
2016-Dec-02 13:30N 51°34' E 006°37'5 4.7
2016-Dec-02 12:31N 51°39' E 006°36'5 5.1
2016-Dec-02 11:33N 51°40' E 006°29'5 4.7
2016-Dec-02 10:33N 51°44' E 006°25'5 4.9
2016-Dec-02 09:33N 51°47' E 006°19'6 5.6
2016-Dec-02 08:34N 51°50' E 006°11'6 6.0
2016-Dec-02 07:34N 51°52' E 006°02'5 4.7
2016-Dec-02 06:34N 51°52' E 005°55'5 4.9
2016-Dec-02 05:33N 51°53' E 005°47'6 6.0
2016-Dec-02 04:33N 51°54' E 005°37'3 0.8
2016-Dec-02 01:20N 51°54' E 005°33'0 0.0
2016-Dec-02 00:28N 51°54' E 005°33'0 0.1
2016-Dec-01 21:21N 51°54' E 005°32'6 6.0
2016-Dec-01 20:22N 51°50' E 005°24'4 5.0
2016-Dec-01 19:33N 51°49' E 005°18'7 6.8
2016-Dec-01 18:29N 51°49' E 005°06'7 7.4
2016-Dec-01 17:34N 51°50' E 004°55'9 9.1
2016-Dec-01 16:33N 51°49' E 004°40'9 8.6
2016-Dec-01 15:33N 51°55' E 004°30'1 0.5
2016-Dec-01 14:32N 51°55' E 004°29'0 0.0
2016-Dec-01 13:33N 51°55' E 004°29'0 0.0
2016-Dec-01 12:33N 51°55' E 004°29'2 2.4
2016-Dec-01 11:33N 51°53' E 004°26'0 0.0
2016-Dec-01 10:33N 51°53' E 004°26'0 0.0
2016-Dec-01 09:33N 51°53' E 004°26'0 0.3
2016-Dec-01 08:33N 51°53' E 004°27'1 0.6
2016-Dec-01 07:33N 51°54' E 004°26'2 2.1
2016-Dec-01 06:33N 51°55' E 004°29'7 6.8
2016-Dec-01 05:33N 51°52' E 004°39'3 2.7
2016-Dec-01 04:33N 51°49' E 004°40'0 0.0
2016-Dec-01 03:34N 51°49' E 004°40'0 0.0
2016-Dec-01 02:34N 51°49' E 004°40'0 0.0
2016-Dec-01 01:34N 51°49' E 004°40'0 0.0
2016-Dec-01 00:34N 51°49' E 004°40'0 0.0
2016-Nov-30 23:34N 51°49' E 004°40'0 0.0
2016-Nov-30 22:34N 51°49' E 004°40'0 0.0
2016-Nov-30 21:33N 51°49' E 004°40'0 0.0
2016-Nov-30 20:33N 51°49' E 004°40'0 0.0
2016-Nov-30 19:33N 51°49' E 004°40'7 6.8
2016-Nov-30 18:33N 51°42' E 004°36'7 7.1
2016-Nov-30 17:30N 51°42' E 004°24'14 4.6
2016-Nov-30 14:28N 51°37' E 004°03'6 6.4
2016-Nov-30 13:33N 51°31' E 004°01'6 6.2
2016-Nov-30 12:33N 51°25' E 003°58'  
Track history (hours):
 
Tides and Currents Weather Stations Pressure Air Temp Water Temp Dewpoint Dewpoint Depression Visibility Wind Speed Wind Dir Waves Ship Positions

Audrey

Last reported at 2016-Dec-10 12:19 UTC. Time now 2016-Dec-11 09:59 UTC.
Position N 49°26' E 008°30'.

Length 85 m; draft 2 m.

Type: Wing in ground effect craft. MMSI: 244660106.

Date/timePositionNaut miles runAvg speedWind from/ knotsBaromVisibWave heightAir tempDewpointWater temp
2016-Dec-10 12:19N 49°26' E 008°30'6 8.3
2016-Dec-10 11:33N 49°20' E 008°27'6 6.4
2016-Dec-10 10:33N 49°14' E 008°23'9 8.7
2016-Dec-10 09:33N 49°05' E 008°21'9 8.7
2016-Dec-10 08:33N 48°58' E 008°14'84 3.8
2016-Dec-09 10:32N 47°39' E 007°32'3 3.2
2016-Dec-09 09:33N 47°37' E 007°35'1 0.8
2016-Dec-09 08:31N 47°36' E 007°35'0 0.0
2016-Dec-09 07:33N 47°36' E 007°35'0 0.0
2016-Dec-09 06:33N 47°36' E 007°35'0 0.0
2016-Dec-09 05:33N 47°36' E 007°35'0 0.0
2016-Dec-09 04:33N 47°36' E 007°35'0 0.0
2016-Dec-09 03:33N 47°36' E 007°35'0 0.0
2016-Dec-09 02:33N 47°36' E 007°35'0 0.0
2016-Dec-09 01:33N 47°36' E 007°35'0 0.0
2016-Dec-09 00:33N 47°36' E 007°35'0 0.0
2016-Dec-08 23:33N 47°36' E 007°35'0 0.0
2016-Dec-08 22:33N 47°36' E 007°35'0 0.0
2016-Dec-08 21:33N 47°36' E 007°35'0 0.0
2016-Dec-08 20:33N 47°36' E 007°35'0 0.0
2016-Dec-08 19:33N 47°36' E 007°35'0 0.0
2016-Dec-08 18:33N 47°36' E 007°35'0 0.0
2016-Dec-08 17:32N 47°36' E 007°35'2 0.9
2016-Dec-08 15:28N 47°34' E 007°35'1 0.2
2016-Dec-08 10:31N 47°33' E 007°36'5 4.9
2016-Dec-08 09:33N 47°32' E 007°43'1 1.0
2016-Dec-08 08:33N 47°33' E 007°44'0 0.0
2016-Dec-08 07:33N 47°33' E 007°44'0 0.0
2016-Dec-08 06:34N 47°33' E 007°44'0 0.0
2016-Dec-08 05:33N 47°33' E 007°44'0 0.0
2016-Dec-08 04:33N 47°33' E 007°44'0 0.0
2016-Dec-08 03:33N 47°33' E 007°44'0 0.0
2016-Dec-08 02:32N 47°33' E 007°44'0 0.0
2016-Dec-08 01:33N 47°33' E 007°44'0 0.0
2016-Dec-08 00:33N 47°33' E 007°44'0 0.0
2016-Dec-07 23:33N 47°33' E 007°44'0 0.0
2016-Dec-07 22:33N 47°33' E 007°44'0 0.0
2016-Dec-07 21:33N 47°33' E 007°44'0 0.0
2016-Dec-07 20:33N 47°33' E 007°44'0 0.0
2016-Dec-07 19:32N 47°33' E 007°44'0 0.0
2016-Dec-07 18:33N 47°33' E 007°44'0 0.0
2016-Dec-07 17:33N 47°33' E 007°44'0 0.0
2016-Dec-07 16:34N 47°33' E 007°44'0 0.0
2016-Dec-07 15:34N 47°33' E 007°44'0 0.0
2016-Dec-07 14:33N 47°33' E 007°44'0 0.0
2016-Dec-07 13:34N 47°33' E 007°44'0 0.0
2016-Dec-07 12:33N 47°33' E 007°44'0 0.0
2016-Dec-07 11:33N 47°33' E 007°44'0 0.0
2016-Dec-07 10:34N 47°33' E 007°44'0 0.0
2016-Dec-07 09:33N 47°33' E 007°44'0 0.0
2016-Dec-07 08:33N 47°33' E 007°44'2 2.1
2016-Dec-07 07:33N 47°32' E 007°41'85 2.0
2016-Dec-05 13:03N 48°54' E 008°09'3 4.1
2016-Dec-05 12:20N 48°57' E 008°11'3 3.7
2016-Dec-05 11:33N 48°59' E 008°15'4 3.6
2016-Dec-05 10:33N 49°02' E 008°18'4 4.1
2016-Dec-05 09:34N 49°05' E 008°21'4 4.0
2016-Dec-05 08:33N 49°09' E 008°22'4 3.9
2016-Dec-05 07:34N 49°13' E 008°23'4 4.0
2016-Dec-05 06:33N 49°16' E 008°27'3 2.9
2016-Dec-05 05:33N 49°19' E 008°27'5 4.6
2016-Dec-05 04:29N 49°24' E 008°30'102 2.4
2016-Dec-03 10:14N 50°49' E 007°02'2 3.1
2016-Dec-03 09:29N 50°51' E 007°00'2 2.6
2016-Dec-03 08:31N 50°54' E 007°00'4 4.2
2016-Dec-03 07:29N 50°58' E 006°60'36 2.1
2016-Dec-02 14:30N 51°32' E 006°41'3 3.3
2016-Dec-02 13:30N 51°34' E 006°37'5 4.7
2016-Dec-02 12:31N 51°39' E 006°36'5 5.1
2016-Dec-02 11:33N 51°40' E 006°29'5 4.7
2016-Dec-02 10:33N 51°44' E 006°25'5 4.9
2016-Dec-02 09:33N 51°47' E 006°19'6 5.6
2016-Dec-02 08:34N 51°50' E 006°11'6 6.0
2016-Dec-02 07:34N 51°52' E 006°02'5 4.7
2016-Dec-02 06:34N 51°52' E 005°55'5 4.9
2016-Dec-02 05:33N 51°53' E 005°47'6 6.0
2016-Dec-02 04:33N 51°54' E 005°37'3 0.8
2016-Dec-02 01:20N 51°54' E 005°33'0 0.0
2016-Dec-02 00:28N 51°54' E 005°33'0 0.1
2016-Dec-01 21:21N 51°54' E 005°32'6 6.0
2016-Dec-01 20:22N 51°50' E 005°24'4 5.0
2016-Dec-01 19:33N 51°49' E 005°18'7 6.8
2016-Dec-01 18:29N 51°49' E 005°06'7 7.4
2016-Dec-01 17:34N 51°50' E 004°55'9 9.1
2016-Dec-01 16:33N 51°49' E 004°40'9 8.6
2016-Dec-01 15:33N 51°55' E 004°30'1 0.5
2016-Dec-01 14:32N 51°55' E 004°29'0 0.0
2016-Dec-01 13:33N 51°55' E 004°29'0 0.0
2016-Dec-01 12:33N 51°55' E 004°29'2 2.4
2016-Dec-01 11:33N 51°53' E 004°26'0 0.0
2016-Dec-01 10:33N 51°53' E 004°26'0 0.0
2016-Dec-01 09:33N 51°53' E 004°26'0 0.3
2016-Dec-01 08:33N 51°53' E 004°27'1 0.6
2016-Dec-01 07:33N 51°54' E 004°26'2 2.1
2016-Dec-01 06:33N 51°55' E 004°29'7 6.8
2016-Dec-01 05:33N 51°52' E 004°39'3 2.7
2016-Dec-01 04:33N 51°49' E 004°40'0 0.0
2016-Dec-01 03:34N 51°49' E 004°40'0 0.0
2016-Dec-01 02:34N 51°49' E 004°40'0 0.0
2016-Dec-01 01:34N 51°49' E 004°40'0 0.0
2016-Dec-01 00:34N 51°49' E 004°40'0 0.0
2016-Nov-30 23:34N 51°49' E 004°40'0 0.0
2016-Nov-30 22:34N 51°49' E 004°40'0 0.0
2016-Nov-30 21:33N 51°49' E 004°40'0 0.0
2016-Nov-30 20:33N 51°49' E 004°40'0 0.0
2016-Nov-30 19:33N 51°49' E 004°40'7 6.8
2016-Nov-30 18:33N 51°42' E 004°36'7 7.1
2016-Nov-30 17:30N 51°42' E 004°24'14 4.6
2016-Nov-30 14:28N 51°37' E 004°03'6 6.4
2016-Nov-30 13:33N 51°31' E 004°01'6 6.2
2016-Nov-30 12:33N 51°25' E 003°58'  

Dump ship's entire track history